createdAt,value
2023-04-18T00:02:23.258Z,11.23
2023-04-18T00:07:27.580Z,10.80
2023-04-18T00:12:30.687Z,11.12
2023-04-18T00:17:33.438Z,10.97
2023-04-18T00:22:42.271Z,11.12
2023-04-18T00:27:45.084Z,11.24
2023-04-18T00:32:47.863Z,10.92
2023-04-18T00:37:52.325Z,11.00
2023-04-18T00:42:55.038Z,11.40
2023-04-18T00:47:57.865Z,11.51
2023-04-18T00:53:02.144Z,10.88
2023-04-18T00:58:06.182Z,11.01
2023-04-18T01:03:10.780Z,10.95
2023-04-18T01:08:15.340Z,11.50
2023-04-18T01:13:19.437Z,11.72
2023-04-18T01:18:24.336Z,11.11
2023-04-18T01:23:28.444Z,11.23
2023-04-18T01:28:32.525Z,10.96
2023-04-18T01:33:35.221Z,10.63
2023-04-18T01:38:37.956Z,10.74
2023-04-18T01:43:42.154Z,10.48
2023-04-18T01:48:45.482Z,10.30
2023-04-18T01:53:48.420Z,10.35
2023-04-18T01:58:52.559Z,10.81
2023-04-18T02:03:55.721Z,11.38
2023-04-18T02:08:58.710Z,10.67
2023-04-18T02:14:02.818Z,10.81
2023-04-18T02:19:06.321Z,10.98
2023-04-18T02:24:09.056Z,10.70
2023-04-18T02:29:13.249Z,10.82
2023-04-18T02:34:16.633Z,10.69
2023-04-18T02:39:19.437Z,10.73
2023-04-18T02:44:23.643Z,11.08
2023-04-18T02:49:26.366Z,10.30
2023-04-18T02:54:29.188Z,10.42
2023-04-18T02:59:39.662Z,10.49
2023-04-18T03:04:42.422Z,10.34
2023-04-18T03:09:46.402Z,10.41
2023-04-18T03:14:56.096Z,10.64
2023-04-18T03:19:58.876Z,10.38
2023-04-18T03:25:01.910Z,10.51
2023-04-18T03:30:18.768Z,10.57
2023-04-18T03:35:27.309Z,10.54
2023-04-18T03:40:30.749Z,10.00
2023-04-18T03:45:41.201Z,9.88
2023-04-18T03:50:44.184Z,10.29
2023-04-18T03:55:47.389Z,10.12
2023-04-18T04:00:55.184Z,9.87
2023-04-18T04:05:58.237Z,9.96
2023-04-18T04:11:01.290Z,9.91
2023-04-18T04:16:07.072Z,9.84
2023-04-18T04:21:10.076Z,9.81
2023-04-18T04:26:23.062Z,9.62
2023-04-18T04:31:35.802Z,9.59
2023-04-18T04:36:41.125Z,9.48
2023-04-18T04:41:44.832Z,9.70
2023-04-18T04:46:49.776Z,9.82
2023-04-18T04:51:57.818Z,9.67
2023-04-18T04:57:01.526Z,10.32
2023-04-18T05:02:05.921Z,10.12
2023-04-18T05:07:08.809Z,10.04
2023-04-18T05:12:11.539Z,10.27
2023-04-18T05:17:15.763Z,10.51
2023-04-18T05:22:18.493Z,10.64
2023-04-18T05:27:21.588Z,10.68
2023-04-18T05:32:25.731Z,10.63
2023-04-18T05:37:28.470Z,11.08
2023-04-18T05:42:31.167Z,10.70
2023-04-18T05:47:35.542Z,10.95
2023-04-18T05:52:38.944Z,10.93
2023-04-18T05:57:41.821Z,11.47
2023-04-18T06:02:46.102Z,12.20
2023-04-18T06:07:49.082Z,15.38
2023-04-18T06:12:51.858Z,17.36
2023-04-18T06:17:56.025Z,16.90
2023-04-18T06:22:58.805Z,17.78
2023-04-18T06:28:01.575Z,17.71
2023-04-18T06:33:05.806Z,19.54
2023-04-18T06:38:08.764Z,18.30
2023-04-18T06:43:11.501Z,16.41
2023-04-18T06:48:16.606Z,14.71
2023-04-18T06:53:19.393Z,14.26
2023-04-18T06:58:22.100Z,14.71
2023-04-18T07:03:26.990Z,14.32
2023-04-18T07:08:29.846Z,15.01
2023-04-18T07:13:32.803Z,15.13
2023-04-18T07:18:38.296Z,15.41
2023-04-18T07:23:41.704Z,15.93
2023-04-18T07:28:44.512Z,15.22
2023-04-18T07:33:48.700Z,15.86
2023-04-18T07:38:51.800Z,16.48
2023-04-18T07:43:54.589Z,16.75
2023-04-18T07:48:58.882Z,16.34
2023-04-18T07:54:02.127Z,16.42
2023-04-18T07:59:04.946Z,17.17
2023-04-18T08:04:09.281Z,17.30
2023-04-18T08:09:13.191Z,17.13
2023-04-18T08:14:16.334Z,18.31
2023-04-18T08:19:20.526Z,17.41
2023-04-18T08:24:23.338Z,16.24
2023-04-18T08:29:26.574Z,16.62
2023-04-18T08:34:34.089Z,15.92
2023-04-18T08:39:37.038Z,16.31
2023-04-18T08:44:39.798Z,16.01
2023-04-18T08:49:46.625Z,16.19
2023-04-18T08:54:51.923Z,16.46
2023-04-18T08:59:55.452Z,16.26
2023-04-18T09:04:59.631Z,15.83
2023-04-18T09:10:02.369Z,16.36
2023-04-18T09:15:13.701Z,15.70
2023-04-18T09:20:30.594Z,15.81
2023-04-18T09:25:41.286Z,16.28
2023-04-18T09:30:46.513Z,16.69
2023-04-18T09:35:51.857Z,16.56
2023-04-18T09:41:09.663Z,14.91
2023-04-18T09:46:12.829Z,14.69
2023-04-18T09:51:17.823Z,14.64
2023-04-18T09:56:25.659Z,15.64
2023-04-18T10:01:29.432Z,16.00
2023-04-18T10:06:35.454Z,15.63
2023-04-18T10:11:38.382Z,15.33
2023-04-18T10:16:42.061Z,15.86
2023-04-18T10:21:53.595Z,16.83
2023-04-18T10:26:56.543Z,15.74
2023-04-18T10:32:06.582Z,15.99
2023-04-18T10:37:12.756Z,16.71
2023-04-18T10:42:15.675Z,16.22
2023-04-18T10:47:27.582Z,17.33
2023-04-18T10:52:32.310Z,16.85
2023-04-18T10:57:43.358Z,15.99
2023-04-18T11:02:50.779Z,16.90
2023-04-18T11:07:55.708Z,16.85
2023-04-18T11:13:04.402Z,16.68
2023-04-18T11:18:07.251Z,17.14
2023-04-18T11:23:20.533Z,17.49
2023-04-18T11:28:24.790Z,16.22
2023-04-18T11:33:29.537Z,16.42
2023-04-18T11:38:34.539Z,17.31
2023-04-18T11:43:37.389Z,18.01
2023-04-18T11:48:42.225Z,17.10
2023-04-18T11:53:46.638Z,17.25
2023-04-18T11:58:49.498Z,16.52
2023-04-18T12:04:02.982Z,17.78
2023-04-18T12:09:07.847Z,18.11
2023-04-18T12:14:21.426Z,19.26
2023-04-18T12:19:27.574Z,18.28
2023-04-18T12:24:32.194Z,17.07
2023-04-18T12:29:35.084Z,17.70
2023-04-18T12:34:37.851Z,17.38
2023-04-18T12:39:41.926Z,16.58
2023-04-18T12:44:46.945Z,16.56
2023-04-18T12:49:51.040Z,17.40
2023-04-18T12:54:56.283Z,18.69
2023-04-18T12:59:59.101Z,18.31
2023-04-18T13:05:01.932Z,18.49
2023-04-18T13:10:07.547Z,17.77
2023-04-18T13:15:11.613Z,17.77
2023-04-18T13:20:14.345Z,17.79
2023-04-18T13:25:18.539Z,17.17
2023-04-18T13:30:21.493Z,17.72
2023-04-18T13:35:24.242Z,18.09
2023-04-18T13:40:28.458Z,17.58
2023-04-18T13:45:31.235Z,17.02
2023-04-18T13:50:33.986Z,17.00
2023-04-18T13:55:38.137Z,17.27
2023-04-18T14:00:40.937Z,17.27
2023-04-18T14:05:43.708Z,17.86
2023-04-18T14:10:47.852Z,18.26
2023-04-18T14:15:50.648Z,18.52
2023-04-18T14:20:53.441Z,17.84
2023-04-18T14:25:57.483Z,18.34
2023-04-18T14:31:02.090Z,18.00
2023-04-18T14:36:05.658Z,16.92
2023-04-18T14:41:09.958Z,17.47
2023-04-18T14:46:13.590Z,18.36
2023-04-18T14:51:17.042Z,17.91
2023-04-18T14:56:23.529Z,17.77
2023-04-18T15:01:26.394Z,18.31
2023-04-18T15:06:30.226Z,16.97
2023-04-18T15:11:34.329Z,17.35
2023-04-18T15:16:39.399Z,17.34
2023-04-18T15:21:42.140Z,17.35
2023-04-18T15:26:46.427Z,17.09
2023-04-18T15:31:49.298Z,16.74
2023-04-18T15:36:52.061Z,17.33
2023-04-18T15:41:56.520Z,17.13
2023-04-18T15:47:01.607Z,17.44
2023-04-18T15:52:06.279Z,17.54
2023-04-18T15:57:10.443Z,16.75
2023-04-18T16:02:13.211Z,17.04
2023-04-18T16:07:16.008Z,16.15
2023-04-18T16:12:20.478Z,16.70
2023-04-18T16:17:23.278Z,16.66
2023-04-18T16:22:26.112Z,17.42
2023-04-18T16:27:30.399Z,16.85
2023-04-18T16:32:33.196Z,16.48
2023-04-18T16:37:35.990Z,16.77
2023-04-18T16:42:41.049Z,15.88
2023-04-18T16:47:43.786Z,16.22
2023-04-18T16:52:46.584Z,15.73
2023-04-18T16:57:50.870Z,16.11
2023-04-18T17:02:55.646Z,16.45
2023-04-18T17:07:58.444Z,16.07
2023-04-18T17:13:03.527Z,16.79
2023-04-18T17:18:06.391Z,16.65
2023-04-18T17:23:09.228Z,15.91
2023-04-18T17:28:13.962Z,16.28
2023-04-18T17:33:16.752Z,16.29
2023-04-18T17:38:19.622Z,16.10
2023-04-18T17:43:23.849Z,16.39
2023-04-18T17:48:26.889Z,16.41
2023-04-18T17:53:31.544Z,16.47
2023-04-18T17:58:36.501Z,16.15
2023-04-18T18:03:39.582Z,16.26
2023-04-18T18:08:44.159Z,15.92
2023-04-18T18:13:51.878Z,15.99
2023-04-18T18:18:54.725Z,16.13
2023-04-18T18:23:57.576Z,15.74
2023-04-18T18:29:02.101Z,15.14
2023-04-18T18:34:05.160Z,15.68
2023-04-18T18:39:07.971Z,15.41
2023-04-18T18:44:12.873Z,14.59
2023-04-18T18:49:16.040Z,14.91
2023-04-18T18:54:18.963Z,14.79
2023-04-18T18:59:23.208Z,14.82
2023-04-18T19:04:26.100Z,14.09
2023-04-18T19:09:28.984Z,14.20
2023-04-18T19:14:33.106Z,14.56
2023-04-18T19:19:36.251Z,14.32
2023-04-18T19:24:39.036Z,14.26
2023-04-18T19:29:43.129Z,13.94
2023-04-18T19:34:45.884Z,14.45
2023-04-18T19:39:48.742Z,14.13
2023-04-18T19:44:53.081Z,14.27
2023-04-18T19:49:55.936Z,14.54
2023-04-18T19:54:58.708Z,14.52
2023-04-18T20:00:03.599Z,14.50
2023-04-18T20:05:15.432Z,14.15
2023-04-18T20:10:22.733Z,14.06
2023-04-18T20:15:27.125Z,14.07
2023-04-18T20:20:33.167Z,14.52
2023-04-18T20:25:35.991Z,14.60
2023-04-18T20:30:40.217Z,14.47
2023-04-18T20:35:44.203Z,14.18
2023-04-18T20:40:47.165Z,13.94
2023-04-18T20:45:51.859Z,13.73
2023-04-18T20:50:54.732Z,13.67
2023-04-18T20:55:57.445Z,13.71
2023-04-18T21:01:01.584Z,13.54
2023-04-18T21:06:04.589Z,13.62
2023-04-18T21:11:07.434Z,13.10
2023-04-18T21:16:11.860Z,13.04
2023-04-18T21:21:14.577Z,12.71
2023-04-18T21:26:17.453Z,12.81
2023-04-18T21:31:21.590Z,13.06
2023-04-18T21:36:26.378Z,12.69
2023-04-18T21:41:29.409Z,12.57
2023-04-18T21:46:33.595Z,12.81
2023-04-18T21:51:36.346Z,12.81
2023-04-18T21:56:39.143Z,12.76
2023-04-18T22:01:43.906Z,12.68
2023-04-18T22:06:46.724Z,12.81
2023-04-18T22:11:51.079Z,12.29
2023-04-18T22:16:55.514Z,12.72
2023-04-18T22:21:58.361Z,12.42
2023-04-18T22:27:02.761Z,12.60
2023-04-18T22:32:06.956Z,12.14
2023-04-18T22:37:09.741Z,11.74
2023-04-18T22:42:12.501Z,12.31
2023-04-18T22:47:16.729Z,12.25
2023-04-18T22:52:19.653Z,11.82
2023-04-18T22:57:22.422Z,11.76
2023-04-18T23:02:26.738Z,11.94
2023-04-18T23:07:29.763Z,11.65
2023-04-18T23:12:32.505Z,11.33
2023-04-18T23:17:36.659Z,11.92
2023-04-18T23:22:39.515Z,11.94
2023-04-18T23:27:42.334Z,11.80
2023-04-18T23:32:46.490Z,11.24
2023-04-18T23:37:50.100Z,11.42
2023-04-18T23:42:53.080Z,11.28
2023-04-18T23:47:57.237Z,11.19
2023-04-18T23:53:00.020Z,11.46
2023-04-18T23:58:02.782Z,11.24
